createdAt,value
2019-03-25T00:00:10.248Z,86.10
2019-03-25T00:02:38.849Z,86.20
2019-03-25T00:05:07.618Z,86.20
2019-03-25T00:07:36.152Z,85.90
2019-03-25T00:10:06.145Z,86.00
2019-03-25T00:12:34.700Z,86.10
2019-03-25T00:15:04.988Z,86.00
2019-03-25T00:17:33.484Z,86.20
2019-03-25T00:20:01.927Z,86.20
2019-03-25T00:22:30.370Z,85.90
2019-03-25T00:24:58.863Z,86.20
2019-03-25T00:27:27.394Z,86.10
2019-03-25T00:29:55.946Z,86.10
2019-03-25T00:32:24.480Z,86.70
2019-03-25T00:34:55.237Z,86.80
2019-03-25T00:37:23.676Z,87.10
2019-03-25T00:39:52.170Z,87.70
2019-03-25T00:42:20.616Z,87.90
2019-03-25T00:44:49.629Z,88.40
2019-03-25T00:47:18.092Z,88.40
2019-03-25T00:49:46.545Z,88.50
2019-03-25T00:52:14.981Z,88.80
2019-03-25T00:54:49.861Z,89.00
2019-03-25T00:57:13.891Z,88.70
2019-03-25T00:59:42.329Z,89.00
2019-03-25T01:02:10.788Z,89.20
2019-03-25T01:04:39.307Z,89.50
2019-03-25T01:07:07.740Z,89.50
2019-03-25T01:09:36.197Z,89.90
2019-03-25T01:12:05.024Z,89.70
2019-03-25T01:14:33.523Z,89.70
2019-03-25T01:17:02.067Z,89.90
2019-03-25T01:19:30.520Z,90.10
2019-03-25T01:21:58.960Z,90.20
2019-03-25T01:24:27.416Z,90.30
2019-03-25T01:26:55.927Z,90.80
2019-03-25T01:29:24.367Z,90.60
2019-03-25T01:31:52.925Z,90.70
2019-03-25T01:34:21.360Z,90.90
2019-03-25T01:36:49.787Z,91.00
2019-03-25T01:39:18.252Z,91.10
2019-03-25T01:41:46.691Z,91.20
2019-03-25T01:44:15.160Z,90.90
2019-03-25T01:46:44.795Z,91.10
2019-03-25T01:49:13.231Z,91.10
2019-03-25T01:51:41.671Z,91.10
2019-03-25T01:54:10.199Z,91.00
2019-03-25T01:56:38.645Z,91.20
2019-03-25T01:59:07.176Z,91.20
2019-03-25T02:01:35.709Z,91.20
2019-03-25T02:04:04.162Z,91.60
2019-03-25T02:06:32.603Z,91.30
2019-03-25T02:09:01.196Z,91.40
2019-03-25T02:11:29.643Z,91.60
2019-03-25T02:13:58.079Z,91.60
2019-03-25T02:16:26.547Z,91.70
2019-03-25T02:18:54.988Z,91.50
2019-03-25T02:21:23.420Z,91.50
2019-03-25T02:23:51.955Z,91.40
2019-03-25T02:26:20.392Z,91.50
2019-03-25T02:28:48.852Z,91.40
2019-03-25T02:31:17.328Z,91.30
2019-03-25T02:33:45.845Z,91.50
2019-03-25T02:36:26.232Z,91.50
2019-03-25T02:38:54.670Z,91.60
2019-03-25T02:41:23.108Z,91.80
2019-03-25T02:43:51.574Z,91.70
2019-03-25T02:46:20.110Z,91.70
2019-03-25T02:48:48.549Z,91.80
2019-03-25T02:51:17.001Z,91.80
2019-03-25T02:53:45.441Z,91.70
2019-03-25T02:56:13.886Z,91.80
2019-03-25T02:58:42.354Z,91.50
2019-03-25T03:01:10.797Z,91.20
2019-03-25T03:03:39.237Z,91.20
2019-03-25T03:06:08.824Z,91.20
2019-03-25T03:08:37.273Z,91.30
2019-03-25T03:11:05.717Z,91.30
2019-03-25T03:13:34.260Z,91.10
2019-03-25T03:16:02.713Z,91.40
2019-03-25T03:18:31.227Z,90.40
2019-03-25T03:20:59.689Z,90.30
2019-03-25T03:23:28.160Z,89.80
2019-03-25T03:25:58.158Z,89.30
2019-03-25T03:28:26.948Z,89.40
2019-03-25T03:30:55.415Z,89.00
2019-03-25T03:33:23.969Z,88.30
2019-03-25T03:35:52.441Z,88.20
2019-03-25T03:38:20.943Z,88.50
2019-03-25T03:40:49.457Z,88.50
2019-03-25T03:43:17.912Z,88.00
2019-03-25T03:45:46.445Z,88.10
2019-03-25T03:48:15.040Z,87.80
2019-03-25T03:50:43.585Z,88.30
2019-03-25T03:53:12.166Z,87.70
2019-03-25T03:55:40.690Z,87.80
2019-03-25T03:58:09.637Z,87.90
2019-03-25T04:00:38.245Z,88.40
2019-03-25T04:03:06.849Z,88.70
2019-03-25T04:05:35.321Z,88.00
2019-03-25T04:08:03.901Z,88.40
2019-03-25T04:10:32.418Z,88.80
2019-03-25T04:13:00.963Z,88.90
2019-03-25T04:15:53.595Z,88.20
2019-03-25T04:18:22.138Z,88.90
2019-03-25T04:20:50.644Z,89.10
2019-03-25T04:23:19.087Z,89.50
2019-03-25T04:25:47.562Z,89.70
2019-03-25T04:28:16.041Z,89.90
2019-03-25T04:30:44.515Z,90.40
2019-03-25T04:33:13.025Z,91.10
2019-03-25T04:35:41.549Z,91.80
2019-03-25T04:38:10.073Z,92.30
2019-03-25T04:40:38.532Z,93.40
2019-03-25T04:43:07.045Z,94.20
2019-03-25T04:45:35.483Z,94.70
2019-03-25T04:48:03.947Z,95.10
2019-03-25T04:50:32.385Z,95.60
2019-03-25T04:53:00.888Z,96.00
2019-03-25T04:55:29.373Z,96.30
2019-03-25T04:57:57.826Z,96.90
2019-03-25T05:00:36.941Z,96.90
2019-03-25T05:03:05.753Z,97.10
2019-03-25T05:05:36.023Z,97.20
2019-03-25T05:08:04.876Z,97.40
2019-03-25T05:10:33.324Z,97.30
2019-03-25T05:13:01.772Z,97.30
2019-03-25T05:15:30.245Z,97.30
2019-03-25T05:17:58.685Z,97.30
2019-03-25T05:20:27.180Z,97.30
2019-03-25T05:22:55.639Z,97.10
2019-03-25T05:25:24.155Z,97.00
2019-03-25T05:27:52.595Z,97.00
2019-03-25T05:30:23.010Z,96.90
2019-03-25T05:32:51.286Z,96.80
2019-03-25T05:35:19.731Z,96.70
2019-03-25T05:37:48.191Z,96.70
2019-03-25T05:40:16.671Z,96.70
2019-03-25T05:42:45.149Z,96.60
2019-03-25T05:45:13.960Z,96.40
2019-03-25T05:47:42.413Z,96.40
2019-03-25T05:50:11.021Z,96.20
2019-03-25T05:52:39.508Z,96.20
2019-03-25T05:55:08.094Z,96.40
2019-03-25T05:57:36.547Z,96.20
2019-03-25T06:00:05.855Z,96.10
2019-03-25T06:02:34.302Z,95.70
2019-03-25T06:05:02.827Z,95.80
2019-03-25T06:07:31.305Z,95.80
2019-03-25T06:09:59.743Z,95.70
2019-03-25T06:12:28.215Z,95.70
2019-03-25T06:14:56.671Z,95.70
2019-03-25T06:17:25.141Z,95.40
2019-03-25T06:19:54.375Z,95.20
2019-03-25T06:22:22.854Z,95.20
2019-03-25T06:24:51.294Z,95.20
2019-03-25T06:27:19.749Z,95.50
2019-03-25T06:29:48.208Z,95.00
2019-03-25T06:32:16.661Z,94.80
2019-03-25T06:34:45.127Z,94.90
2019-03-25T06:37:13.679Z,94.50
2019-03-25T06:39:42.124Z,94.40
2019-03-25T06:42:10.564Z,94.20
2019-03-25T06:44:39.040Z,94.20
2019-03-25T06:47:07.496Z,94.00
2019-03-25T06:49:35.946Z,94.00
2019-03-25T06:52:04.661Z,93.60
2019-03-25T06:54:33.159Z,93.20
2019-03-25T06:57:01.609Z,93.00
2019-03-25T06:59:30.168Z,92.90
2019-03-25T07:01:58.612Z,92.80
2019-03-25T07:04:27.123Z,92.70
2019-03-25T07:06:55.664Z,92.50
2019-03-25T07:09:24.121Z,92.60
2019-03-25T07:11:52.567Z,92.10
2019-03-25T07:14:21.166Z,92.10
2019-03-25T07:16:49.608Z,91.80
2019-03-25T07:19:18.056Z,91.90
2019-03-25T07:21:46.613Z,91.30
2019-03-25T07:24:15.060Z,90.70
2019-03-25T07:26:43.512Z,90.60
2019-03-25T07:29:11.984Z,90.50
2019-03-25T07:31:40.423Z,90.10
2019-03-25T07:34:08.876Z,90.10
2019-03-25T07:36:37.349Z,89.30
2019-03-25T07:39:07.240Z,89.20
2019-03-25T07:41:35.793Z,88.60
2019-03-25T07:44:04.498Z,87.40
2019-03-25T07:46:33.008Z,86.80
2019-03-25T07:49:01.460Z,86.00
2019-03-25T07:51:30.007Z,86.00
2019-03-25T07:54:00.098Z,85.80
2019-03-25T07:56:28.609Z,83.60
2019-03-25T07:58:57.137Z,82.40
2019-03-25T08:01:25.641Z,82.30
2019-03-25T08:03:54.096Z,81.40
2019-03-25T08:06:22.549Z,80.50
2019-03-25T08:08:50.997Z,81.00
2019-03-25T08:11:19.472Z,81.40
2019-03-25T08:13:47.990Z,80.60
2019-03-25T08:16:16.435Z,80.50
2019-03-25T08:18:44.947Z,79.60
2019-03-25T08:21:13.559Z,78.30
2019-03-25T08:23:42.015Z,78.30
2019-03-25T08:26:10.448Z,77.90
2019-03-25T08:28:38.916Z,78.20
2019-03-25T08:31:07.426Z,76.90
2019-03-25T08:33:35.857Z,78.20
2019-03-25T08:36:04.542Z,76.50
2019-03-25T08:38:33.013Z,76.50
2019-03-25T08:41:01.462Z,75.70
2019-03-25T08:43:29.985Z,75.10
2019-03-25T08:45:58.547Z,75.20
2019-03-25T08:48:27.116Z,74.30
2019-03-25T08:50:55.589Z,74.20
2019-03-25T08:53:24.115Z,74.70
2019-03-25T08:55:52.557Z,74.20
2019-03-25T08:58:21.023Z,74.10
2019-03-25T09:00:52.239Z,72.80
2019-03-25T09:03:20.826Z,72.30
2019-03-25T09:05:49.380Z,72.80
2019-03-25T09:08:17.819Z,72.70
2019-03-25T09:10:46.356Z,72.80
2019-03-25T09:13:14.866Z,72.40
2019-03-25T09:15:43.296Z,72.50
2019-03-25T09:18:11.897Z,72.80
2019-03-25T09:20:41.125Z,72.40
2019-03-25T09:23:09.559Z,72.60
2019-03-25T09:25:37.999Z,71.60
2019-03-25T09:28:06.467Z,70.40
2019-03-25T09:31:13.927Z,69.90
2019-03-25T09:33:42.471Z,70.30
2019-03-25T09:36:10.989Z,71.20
2019-03-25T09:38:39.603Z,69.40
2019-03-25T09:41:08.133Z,69.60
2019-03-25T09:43:56.025Z,68.10
2019-03-25T09:46:24.844Z,68.40
2019-03-25T09:48:53.293Z,68.30
2019-03-25T09:51:21.741Z,68.20
2019-03-25T09:53:50.215Z,67.70
2019-03-25T09:56:18.934Z,67.60
2019-03-25T09:58:47.380Z,67.80
2019-03-25T10:01:15.917Z,66.40
2019-03-25T10:03:44.360Z,66.60
2019-03-25T10:06:12.875Z,65.50
2019-03-25T10:08:41.625Z,65.40
2019-03-25T10:11:10.080Z,65.30
2019-03-25T10:13:38.532Z,65.00
2019-03-25T10:16:06.999Z,65.70
2019-03-25T10:18:35.451Z,67.00
2019-03-25T10:21:04.569Z,67.70
2019-03-25T10:23:33.128Z,68.60
2019-03-25T10:26:01.573Z,69.70
2019-03-25T10:28:30.101Z,68.60
2019-03-25T10:30:58.580Z,68.50
2019-03-25T10:33:27.032Z,68.50
2019-03-25T10:35:55.487Z,67.50
2019-03-25T10:38:23.951Z,67.80
2019-03-25T10:40:52.413Z,66.30
2019-03-25T10:43:20.919Z,64.30
2019-03-25T10:45:49.394Z,63.20
2019-03-25T10:48:17.976Z,63.30
2019-03-25T10:50:46.418Z,63.90
2019-03-25T10:53:15.055Z,64.50
2019-03-25T10:55:43.501Z,63.50
2019-03-25T10:58:12.007Z,60.90
2019-03-25T11:00:40.544Z,59.50
2019-03-25T11:03:09.051Z,57.70
2019-03-25T11:05:37.504Z,59.70
2019-03-25T11:08:06.046Z,61.30
2019-03-25T11:10:34.491Z,62.90
2019-03-25T11:13:03.008Z,63.90
2019-03-25T11:15:31.563Z,61.60
2019-03-25T11:18:00.072Z,60.10
2019-03-25T11:20:28.514Z,57.30
2019-03-25T11:22:57.042Z,54.90
2019-03-25T11:25:25.488Z,54.40
2019-03-25T11:27:54.589Z,55.00
2019-03-25T11:30:49.784Z,54.90
2019-03-25T11:33:18.296Z,57.60
2019-03-25T11:35:46.811Z,60.10
2019-03-25T11:38:15.273Z,57.10
2019-03-25T11:40:43.789Z,54.80
2019-03-25T11:43:12.245Z,53.70
2019-03-25T11:45:40.785Z,54.50
2019-03-25T11:48:09.230Z,52.10
2019-03-25T11:50:37.680Z,51.90
2019-03-25T11:53:06.156Z,52.80
2019-03-25T11:55:34.608Z,51.70
2019-03-25T11:58:03.043Z,53.30
2019-03-25T12:00:31.577Z,53.60
2019-03-25T12:03:00.022Z,53.10
2019-03-25T12:05:28.457Z,51.50
2019-03-25T12:07:57.004Z,53.10
2019-03-25T12:10:25.444Z,53.60
2019-03-25T12:12:54.000Z,52.40
2019-03-25T12:15:22.461Z,49.40
2019-03-25T12:17:50.921Z,50.60
2019-03-25T12:20:19.600Z,53.70
2019-03-25T12:22:48.088Z,54.70
2019-03-25T12:25:17.531Z,54.50
2019-03-25T12:27:53.435Z,55.00
2019-03-25T12:30:22.135Z,53.50
2019-03-25T12:32:50.747Z,52.50
2019-03-25T12:35:19.345Z,50.90
2019-03-25T12:38:07.199Z,52.60
2019-03-25T12:40:43.256Z,52.40
2019-03-25T12:43:11.775Z,52.10
2019-03-25T12:45:40.215Z,52.50
2019-03-25T12:48:08.676Z,52.70
2019-03-25T12:50:37.192Z,52.40
2019-03-25T12:53:05.768Z,53.50
2019-03-25T12:55:34.231Z,54.80
2019-03-25T12:58:02.683Z,51.90
2019-03-25T13:00:39.349Z,52.10
2019-03-25T13:03:08.331Z,52.90
2019-03-25T13:05:37.411Z,52.10
2019-03-25T13:08:06.015Z,52.30
2019-03-25T13:10:34.634Z,49.80
2019-03-25T13:13:03.247Z,48.20
2019-03-25T13:15:31.785Z,50.90
2019-03-25T13:18:00.495Z,52.80
2019-03-25T13:20:28.936Z,52.70
2019-03-25T13:22:57.474Z,54.90
2019-03-25T13:25:25.990Z,54.90
2019-03-25T13:27:54.440Z,53.70
2019-03-25T13:30:22.985Z,53.40
2019-03-25T13:32:51.428Z,52.20
2019-03-25T13:35:19.980Z,52.60
2019-03-25T13:37:48.455Z,51.70
2019-03-25T13:40:16.968Z,52.00
2019-03-25T13:42:46.246Z,52.20
2019-03-25T13:45:14.796Z,51.20
2019-03-25T13:47:43.303Z,51.70
2019-03-25T13:50:11.887Z,51.20
2019-03-25T13:52:40.362Z,50.40
2019-03-25T13:55:08.889Z,50.20
2019-03-25T13:57:37.350Z,52.10
2019-03-25T14:00:07.478Z,52.70
2019-03-25T14:02:35.991Z,53.50
2019-03-25T14:05:05.559Z,53.90
2019-03-25T14:07:34.039Z,55.40
2019-03-25T14:10:02.818Z,55.50
2019-03-25T14:12:31.367Z,55.80
2019-03-25T14:14:59.843Z,55.20
2019-03-25T14:17:28.291Z,55.80
2019-03-25T14:20:16.234Z,55.10
2019-03-25T14:22:44.723Z,53.40
2019-03-25T14:25:13.232Z,54.30
2019-03-25T14:27:41.703Z,53.60
2019-03-25T14:30:14.728Z,53.90
2019-03-25T14:32:40.941Z,55.20
2019-03-25T14:35:30.316Z,55.30
2019-03-25T14:37:58.764Z,55.50
2019-03-25T14:40:27.199Z,53.00
2019-03-25T14:42:55.682Z,53.60
2019-03-25T14:45:26.690Z,55.30
2019-03-25T14:47:54.295Z,55.30
2019-03-25T14:50:22.759Z,54.70
2019-03-25T14:52:51.203Z,55.40
2019-03-25T14:55:19.652Z,55.80
2019-03-25T14:57:48.118Z,55.80
2019-03-25T15:00:24.644Z,54.70
2019-03-25T15:02:47.183Z,55.50
2019-03-25T15:05:15.968Z,55.50
2019-03-25T15:07:44.401Z,55.30
2019-03-25T15:10:13.556Z,55.80
2019-03-25T15:12:42.067Z,54.80
2019-03-25T15:15:11.416Z,52.50
2019-03-25T15:17:39.863Z,50.40
2019-03-25T15:20:10.049Z,48.10
2019-03-25T15:22:38.991Z,48.40
2019-03-25T15:25:09.071Z,46.80
2019-03-25T15:27:37.633Z,48.40
2019-03-25T15:30:08.938Z,47.80
2019-03-25T15:32:37.391Z,46.80
2019-03-25T15:35:08.494Z,45.30
2019-03-25T15:37:36.935Z,45.20
2019-03-25T15:40:10.501Z,45.10
2019-03-25T15:42:39.172Z,47.20
2019-03-25T15:45:08.313Z,45.60
2019-03-25T15:47:36.868Z,45.50
2019-03-25T15:50:08.727Z,44.80
2019-03-25T15:52:38.337Z,44.00
2019-03-25T15:55:07.396Z,46.30
2019-03-25T15:57:36.040Z,44.80
2019-03-25T16:00:08.134Z,45.80
2019-03-25T16:02:36.585Z,46.30
2019-03-25T16:05:06.403Z,46.20
2019-03-25T16:07:34.848Z,45.30
2019-03-25T16:10:04.648Z,44.10
2019-03-25T16:12:33.125Z,45.40
2019-03-25T16:15:01.656Z,47.20
2019-03-25T16:17:30.241Z,47.60
2019-03-25T16:19:58.742Z,48.70
2019-03-25T16:22:27.178Z,51.80
2019-03-25T16:24:55.615Z,52.60
2019-03-25T16:27:24.125Z,53.80
2019-03-25T16:29:52.594Z,54.60
2019-03-25T16:32:21.111Z,54.80
2019-03-25T16:34:49.587Z,55.60
2019-03-25T16:37:19.564Z,54.20
2019-03-25T16:39:48.007Z,54.60
2019-03-25T16:42:16.595Z,55.00
2019-03-25T16:44:45.050Z,54.70
2019-03-25T16:47:13.497Z,54.50
2019-03-25T16:49:42.136Z,55.30
2019-03-25T16:52:10.653Z,56.70
2019-03-25T16:54:39.181Z,57.90
2019-03-25T16:57:07.660Z,57.70
2019-03-25T16:59:36.113Z,58.50
2019-03-25T17:02:04.797Z,59.10
2019-03-25T17:04:33.372Z,59.80
2019-03-25T17:07:01.928Z,58.70
2019-03-25T17:09:30.437Z,59.00
2019-03-25T17:11:58.919Z,59.90
2019-03-25T17:14:27.402Z,59.60
2019-03-25T17:16:55.850Z,60.50
2019-03-25T17:19:24.404Z,60.50
2019-03-25T17:21:57.943Z,61.20
2019-03-25T17:24:23.082Z,62.00
2019-03-25T17:26:51.563Z,61.10
2019-03-25T17:29:20.012Z,61.60
2019-03-25T17:31:48.451Z,61.90
2019-03-25T17:34:16.969Z,62.80
2019-03-25T17:36:45.447Z,63.80
2019-03-25T17:39:13.916Z,65.10
2019-03-25T17:41:42.396Z,65.10
2019-03-25T17:44:10.866Z,65.70
2019-03-25T17:46:39.406Z,65.80
2019-03-25T17:49:07.887Z,66.30
2019-03-25T17:51:36.332Z,66.60
2019-03-25T17:54:04.856Z,67.90
2019-03-25T17:56:33.351Z,68.20
2019-03-25T17:59:01.804Z,69.00
2019-03-25T18:01:32.751Z,69.30
2019-03-25T18:04:05.031Z,69.90
2019-03-25T18:06:33.502Z,70.80
2019-03-25T18:09:02.067Z,71.00
2019-03-25T18:11:30.536Z,71.90
2019-03-25T18:13:58.985Z,71.80
2019-03-25T18:16:27.442Z,72.50
2019-03-25T18:18:55.927Z,72.50
2019-03-25T18:21:24.410Z,73.60
2019-03-25T18:23:52.887Z,74.80
2019-03-25T18:26:21.434Z,74.90
2019-03-25T18:28:49.883Z,75.40
2019-03-25T18:31:18.335Z,74.90
2019-03-25T18:33:46.891Z,76.10
2019-03-25T18:36:15.337Z,77.50
2019-03-25T18:38:43.982Z,76.80
2019-03-25T18:41:13.293Z,77.40
2019-03-25T18:43:41.944Z,77.90
2019-03-25T18:46:10.410Z,77.60
2019-03-25T18:48:38.965Z,77.60
2019-03-25T18:51:07.419Z,78.80
2019-03-25T18:53:35.947Z,78.60
2019-03-25T18:56:04.496Z,79.60
2019-03-25T18:58:33.008Z,79.60
2019-03-25T19:01:01.734Z,80.10
2019-03-25T19:03:30.287Z,80.50
2019-03-25T19:05:58.727Z,80.10
2019-03-25T19:08:27.524Z,80.90
2019-03-25T19:10:56.063Z,81.10
2019-03-25T19:13:24.515Z,80.80
2019-03-25T19:15:53.080Z,81.40
2019-03-25T19:18:21.727Z,81.40
2019-03-25T19:20:50.234Z,82.00
2019-03-25T19:23:18.956Z,82.30
2019-03-25T19:25:47.610Z,82.80
2019-03-25T19:28:16.120Z,82.80
2019-03-25T19:30:44.695Z,83.10
2019-03-25T19:33:13.326Z,84.10
2019-03-25T19:38:24.223Z,82.90
2019-03-25T19:40:53.053Z,84.70
2019-03-25T19:43:21.729Z,85.00
2019-03-25T19:45:50.235Z,85.40
2019-03-25T19:48:18.967Z,84.70
2019-03-25T19:50:47.528Z,84.10
2019-03-25T19:53:19.354Z,85.10
2019-03-25T19:55:46.322Z,84.70
2019-03-25T19:58:19.053Z,83.80
2019-03-25T20:00:47.818Z,84.40
2019-03-25T20:03:16.346Z,84.70
2019-03-25T20:05:44.921Z,86.10
2019-03-25T20:08:13.533Z,86.30
2019-03-25T20:10:43.605Z,85.70
2019-03-25T20:13:12.140Z,86.10
2019-03-25T20:15:46.465Z,87.50
2019-03-25T20:18:10.868Z,88.20
2019-03-25T20:20:39.407Z,88.30
2019-03-25T20:23:07.998Z,88.50
2019-03-25T20:25:36.484Z,88.90
2019-03-25T20:28:05.396Z,88.60
2019-03-25T20:30:34.004Z,89.40
2019-03-25T20:33:02.662Z,90.40
2019-03-25T20:35:31.172Z,90.60
2019-03-25T20:37:59.741Z,90.30
2019-03-25T20:40:28.318Z,90.80
2019-03-25T20:42:56.817Z,91.00
2019-03-25T20:45:25.329Z,91.50
2019-03-25T20:47:53.908Z,90.90
2019-03-25T20:50:22.386Z,90.40
2019-03-25T20:52:51.140Z,91.00
2019-03-25T20:55:19.666Z,90.90
2019-03-25T20:57:48.454Z,90.70
2019-03-25T21:00:20.229Z,91.10
2019-03-25T21:02:48.754Z,90.90
2019-03-25T21:05:17.469Z,91.00
2019-03-25T21:07:46.024Z,91.30
2019-03-25T21:10:14.635Z,91.70
2019-03-25T21:12:43.166Z,92.20
2019-03-25T21:15:11.884Z,92.50
2019-03-25T21:17:40.606Z,92.40
2019-03-25T21:20:09.778Z,92.80
2019-03-25T21:22:38.289Z,92.70
2019-03-25T21:25:07.374Z,93.10
2019-03-25T21:27:36.011Z,93.30
2019-03-25T21:30:07.264Z,93.60
2019-03-25T21:32:35.730Z,93.90
2019-03-25T21:35:23.573Z,93.50
2019-03-25T21:37:52.169Z,93.30
2019-03-25T21:40:20.669Z,93.40
2019-03-25T21:42:49.301Z,93.60
2019-03-25T21:45:37.188Z,93.90
2019-03-25T21:48:05.766Z,93.70
2019-03-25T21:50:34.533Z,94.00
2019-03-25T21:53:03.062Z,94.20
2019-03-25T21:55:31.655Z,94.40
2019-03-25T21:58:00.323Z,94.50
2019-03-25T22:00:28.997Z,94.50
2019-03-25T22:03:06.694Z,94.60
2019-03-25T22:05:27.718Z,94.40
2019-03-25T22:07:56.168Z,94.60
2019-03-25T22:10:24.647Z,95.10
2019-03-25T22:12:53.088Z,95.20
2019-03-25T22:15:21.536Z,95.10
2019-03-25T22:17:49.997Z,95.00
2019-03-25T22:20:18.503Z,95.00
2019-03-25T22:22:47.019Z,95.40
2019-03-25T22:25:15.645Z,95.60
2019-03-25T22:27:44.086Z,95.70
2019-03-25T22:30:13.162Z,95.90
2019-03-25T22:32:41.663Z,95.70
2019-03-25T22:35:10.247Z,95.50
2019-03-25T22:37:38.827Z,95.90
2019-03-25T22:40:28.209Z,96.20
2019-03-25T22:42:56.729Z,96.00
2019-03-25T22:45:37.772Z,96.10
2019-03-25T22:48:07.403Z,96.30
2019-03-25T22:50:36.294Z,96.60
2019-03-25T22:53:04.967Z,96.60
2019-03-25T22:55:33.556Z,96.50
2019-03-25T22:58:01.993Z,96.80
2019-03-25T23:00:41.365Z,96.90
2019-03-25T23:03:09.809Z,97.10
2019-03-25T23:05:38.320Z,97.20
2019-03-25T23:08:06.785Z,97.40
2019-03-25T23:10:35.224Z,97.20
2019-03-25T23:13:03.762Z,97.20
2019-03-25T23:15:32.302Z,97.40
2019-03-25T23:18:00.804Z,97.30
2019-03-25T23:20:29.253Z,97.60
2019-03-25T23:22:57.730Z,97.90
2019-03-25T23:25:26.186Z,97.90
2019-03-25T23:27:54.630Z,97.50
2019-03-25T23:30:23.122Z,97.50
2019-03-25T23:32:51.567Z,97.60
2019-03-25T23:35:20.081Z,97.70
2019-03-25T23:37:48.564Z,97.90
2019-03-25T23:40:17.030Z,98.00
2019-03-25T23:42:45.539Z,98.00
2019-03-25T23:45:14.659Z,98.20
2019-03-25T23:47:43.108Z,98.60
2019-03-25T23:50:11.797Z,98.60
2019-03-25T23:52:40.267Z,98.20
2019-03-25T23:55:08.746Z,98.40
2019-03-25T23:57:37.255Z,98.60
